createdAt,value
2023-04-10T00:02:25.912Z,9.50
2023-04-10T00:04:53.059Z,9.50
2023-04-10T00:07:20.154Z,9.50
2023-04-10T00:09:46.922Z,9.30
2023-04-10T00:12:15.533Z,9.40
2023-04-10T00:14:42.561Z,9.30
2023-04-10T00:17:09.809Z,9.30
2023-04-10T00:19:36.783Z,9.30
2023-04-10T00:22:04.428Z,9.30
2023-04-10T00:24:31.267Z,9.30
2023-04-10T00:26:58.168Z,9.20
2023-04-10T00:29:25.250Z,9.20
2023-04-10T00:31:52.109Z,9.10
2023-04-10T00:34:18.940Z,9.10
2023-04-10T00:36:47.403Z,9.10
2023-04-10T00:39:14.538Z,9.00
2023-04-10T00:41:41.434Z,9.00
2023-04-10T00:44:08.725Z,9.00
2023-04-10T00:46:38.187Z,9.10
2023-04-10T00:49:06.340Z,9.00
2023-04-10T00:51:33.665Z,8.90
2023-04-10T00:54:02.395Z,8.80
2023-04-10T00:56:32.193Z,8.80
2023-04-10T00:58:59.133Z,8.80
2023-04-10T01:01:26.290Z,8.80
2023-04-10T01:03:55.097Z,8.90
2023-04-10T01:06:27.901Z,8.90
2023-04-10T01:08:57.720Z,8.80
2023-04-10T01:12:07.902Z,8.80
2023-04-10T01:14:57.758Z,8.80
2023-04-10T01:17:31.918Z,8.90
2023-04-10T01:20:01.570Z,8.90
2023-04-10T01:22:49.496Z,9.00
2023-04-10T01:25:53.736Z,9.00
2023-04-10T01:28:23.149Z,8.90
2023-04-10T01:30:59.310Z,8.80
2023-04-10T01:33:35.318Z,8.80
2023-04-10T01:36:05.195Z,8.70
2023-04-10T01:38:33.058Z,8.70
2023-04-10T01:41:01.219Z,8.70
2023-04-10T01:43:31.484Z,8.70
2023-04-10T01:45:59.414Z,8.70
2023-04-10T01:48:26.608Z,8.60
2023-04-10T01:50:55.685Z,8.60
2023-04-10T01:53:24.526Z,8.60
2023-04-10T01:55:53.594Z,8.60
2023-04-10T01:58:20.747Z,8.60
2023-04-10T02:00:47.775Z,8.50
2023-04-10T02:03:14.886Z,8.50
2023-04-10T02:06:06.010Z,8.50
2023-04-10T02:08:42.473Z,8.40
2023-04-10T02:11:53.716Z,8.40
2023-04-10T02:14:23.141Z,8.40
2023-04-10T02:16:54.145Z,8.30
2023-04-10T02:19:22.647Z,8.20
2023-04-10T02:21:51.318Z,8.20
2023-04-10T02:24:19.865Z,8.20
2023-04-10T02:26:48.366Z,8.20
2023-04-10T02:29:15.524Z,8.20
2023-04-10T02:31:43.252Z,8.10
2023-04-10T02:34:10.467Z,8.10
2023-04-10T02:36:38.735Z,8.10
2023-04-10T02:39:06.939Z,8.10
2023-04-10T02:41:34.199Z,8.10
2023-04-10T02:44:01.694Z,8.20
2023-04-10T02:46:28.590Z,8.10
2023-04-10T02:48:56.153Z,8.00
2023-04-10T02:51:23.027Z,8.00
2023-04-10T02:53:49.894Z,7.90
2023-04-10T02:56:16.789Z,7.90
2023-04-10T02:58:46.170Z,7.90
2023-04-10T03:01:13.453Z,8.00
2023-04-10T03:03:40.531Z,8.10
2023-04-10T03:06:08.887Z,8.00
2023-04-10T03:08:35.730Z,8.10
2023-04-10T03:11:02.671Z,8.10
2023-04-10T03:13:29.615Z,8.10
2023-04-10T03:15:56.478Z,8.00
2023-04-10T03:18:23.292Z,8.00
2023-04-10T03:20:50.801Z,8.00
2023-04-10T03:23:17.673Z,7.90
2023-04-10T03:25:44.567Z,7.80
2023-04-10T03:28:11.530Z,7.80
2023-04-10T03:30:38.433Z,7.80
2023-04-10T03:33:05.371Z,7.80
2023-04-10T03:35:32.283Z,7.80
2023-04-10T03:37:59.141Z,7.90
2023-04-10T03:40:25.980Z,7.90
2023-04-10T03:42:52.974Z,7.90
2023-04-10T03:45:19.857Z,7.90
2023-04-10T03:47:46.697Z,7.90
2023-04-10T03:50:13.573Z,7.90
2023-04-10T03:52:40.553Z,7.90
2023-04-10T03:55:07.642Z,7.90
2023-04-10T03:57:34.432Z,7.90
2023-04-10T04:00:01.342Z,7.90
2023-04-10T04:02:28.442Z,7.90
2023-04-10T04:04:55.510Z,7.80
2023-04-10T04:07:22.345Z,7.80
2023-04-10T04:09:49.168Z,7.80
2023-04-10T04:12:15.984Z,7.80
2023-04-10T04:14:43.997Z,7.70
2023-04-10T04:17:11.283Z,7.70
2023-04-10T04:19:38.179Z,7.60
2023-04-10T04:22:05.206Z,7.60
2023-04-10T04:24:32.025Z,7.50
2023-04-10T04:26:58.900Z,7.60
2023-04-10T04:29:25.795Z,7.60
2023-04-10T04:31:52.824Z,7.60
2023-04-10T04:34:19.803Z,7.60
2023-04-10T04:36:46.648Z,7.70
2023-04-10T04:39:13.503Z,7.60
2023-04-10T04:41:40.364Z,7.50
2023-04-10T04:44:07.259Z,7.50
2023-04-10T04:46:34.161Z,7.50
2023-04-10T04:49:01.204Z,7.50
2023-04-10T04:51:28.059Z,7.50
2023-04-10T04:53:55.049Z,7.50
2023-04-10T04:56:22.081Z,7.60
2023-04-10T04:58:48.858Z,7.60
2023-04-10T05:01:15.897Z,7.60
2023-04-10T05:03:42.970Z,7.50
2023-04-10T05:06:10.003Z,7.40
2023-04-10T05:08:36.761Z,7.50
2023-04-10T05:11:03.609Z,7.50
2023-04-10T05:13:30.461Z,7.50
2023-04-10T05:15:57.263Z,7.50
2023-04-10T05:18:24.231Z,7.60
2023-04-10T05:20:51.213Z,7.60
2023-04-10T05:23:18.091Z,7.60
2023-04-10T05:25:44.960Z,7.70
2023-04-10T05:28:11.869Z,7.80
2023-04-10T05:30:38.797Z,7.80
2023-04-10T05:33:05.773Z,7.90
2023-04-10T05:35:32.678Z,7.90
2023-04-10T05:38:00.694Z,7.90
2023-04-10T05:40:29.850Z,7.90
2023-04-10T05:42:56.724Z,7.90
2023-04-10T05:45:23.695Z,7.90
2023-04-10T05:47:51.854Z,8.00
2023-04-10T05:50:18.695Z,8.00
2023-04-10T05:52:46.670Z,8.00
2023-04-10T05:55:13.516Z,8.10
2023-04-10T05:57:40.410Z,8.20
2023-04-10T06:00:08.126Z,8.20
2023-04-10T06:02:35.845Z,8.30
2023-04-10T06:05:03.039Z,8.20
2023-04-10T06:07:30.049Z,8.10
2023-04-10T06:09:56.876Z,8.20
2023-04-10T06:12:23.759Z,8.10
2023-04-10T06:14:50.561Z,8.10
2023-04-10T06:17:17.385Z,8.10
2023-04-10T06:19:44.295Z,8.20
2023-04-10T06:22:11.280Z,8.20
2023-04-10T06:24:38.135Z,8.40
2023-04-10T06:27:04.971Z,8.40
2023-04-10T06:29:31.831Z,8.40
2023-04-10T06:31:58.786Z,8.50
2023-04-10T06:34:25.657Z,8.60
2023-04-10T06:36:52.486Z,8.80
2023-04-10T06:39:19.788Z,8.90
2023-04-10T06:41:46.599Z,9.00
2023-04-10T06:44:13.388Z,9.10
2023-04-10T06:46:40.430Z,9.20
2023-04-10T06:49:07.381Z,9.20
2023-04-10T06:51:34.289Z,9.30
2023-04-10T06:54:01.311Z,9.30
2023-04-10T06:56:28.671Z,9.40
2023-04-10T06:58:56.357Z,9.40
2023-04-10T07:01:23.427Z,9.50
2023-04-10T07:03:50.479Z,9.60
2023-04-10T07:06:17.444Z,9.50
2023-04-10T07:08:46.664Z,9.60
2023-04-10T07:11:13.536Z,9.60
2023-04-10T07:13:40.722Z,9.60
2023-04-10T07:16:11.267Z,9.60
2023-04-10T07:18:39.102Z,9.70
2023-04-10T07:21:12.235Z,9.70
2023-04-10T07:23:39.298Z,9.80
2023-04-10T07:26:06.554Z,9.80
2023-04-10T07:28:33.401Z,9.90
2023-04-10T07:31:00.214Z,9.90
2023-04-10T07:33:27.120Z,10.00
2023-04-10T07:35:54.060Z,10.10
2023-04-10T07:38:21.246Z,10.20
2023-04-10T07:40:48.351Z,10.20
2023-04-10T07:43:15.491Z,10.20
2023-04-10T07:45:42.655Z,10.30
2023-04-10T07:48:10.054Z,10.40
2023-04-10T07:50:36.942Z,10.40
2023-04-10T07:53:07.787Z,10.40
2023-04-10T07:55:39.157Z,10.50
2023-04-10T07:58:06.371Z,10.60
2023-04-10T08:00:33.832Z,10.70
2023-04-10T08:03:01.533Z,10.70
2023-04-10T08:05:28.750Z,10.80
2023-04-10T08:07:55.716Z,11.00
2023-04-10T08:10:22.854Z,11.10
2023-04-10T08:12:49.697Z,11.20
2023-04-10T08:15:18.526Z,11.30
2023-04-10T08:17:45.636Z,11.50
2023-04-10T08:20:13.011Z,11.60
2023-04-10T08:22:39.910Z,11.70
2023-04-10T08:25:07.065Z,11.70
2023-04-10T08:27:33.962Z,11.80
2023-04-10T08:30:00.830Z,11.90
2023-04-10T08:32:28.353Z,12.00
2023-04-10T08:34:55.220Z,12.10
2023-04-10T08:37:22.202Z,12.30
2023-04-10T08:39:49.108Z,12.40
2023-04-10T08:42:16.064Z,12.50
2023-04-10T08:44:43.029Z,12.60
2023-04-10T08:47:10.784Z,12.60
2023-04-10T08:49:40.870Z,12.80
2023-04-10T08:52:09.598Z,12.90
2023-04-10T08:54:39.157Z,12.90
2023-04-10T08:57:09.148Z,13.00
2023-04-10T08:59:37.589Z,13.00
2023-04-10T09:02:06.094Z,13.00
2023-04-10T09:04:33.648Z,13.10
2023-04-10T09:07:00.669Z,13.10
2023-04-10T09:09:28.772Z,13.20
2023-04-10T09:11:56.040Z,13.20
2023-04-10T09:14:30.862Z,13.30
2023-04-10T09:17:17.717Z,13.40
2023-04-10T09:19:49.650Z,13.50
2023-04-10T09:22:17.012Z,13.60
2023-04-10T09:24:46.011Z,13.70
2023-04-10T09:27:32.601Z,13.80
2023-04-10T09:30:00.007Z,13.90
2023-04-10T09:32:46.639Z,13.90
2023-04-10T09:35:15.594Z,14.00
2023-04-10T09:37:45.135Z,14.30
2023-04-10T09:40:22.213Z,14.50
2023-04-10T09:42:49.243Z,14.70
2023-04-10T09:45:19.950Z,14.70
2023-04-10T09:48:07.677Z,14.80
2023-04-10T09:50:40.774Z,14.80
2023-04-10T09:53:12.907Z,15.00
2023-04-10T09:55:40.545Z,15.00
2023-04-10T09:58:08.127Z,15.10
2023-04-10T10:00:45.116Z,15.00
2023-04-10T10:03:16.814Z,15.00
2023-04-10T10:05:46.243Z,14.90
2023-04-10T10:08:13.726Z,15.00
2023-04-10T10:10:48.443Z,14.90
2023-04-10T10:13:31.961Z,15.00
2023-04-10T10:16:12.986Z,15.00
2023-04-10T10:18:47.333Z,15.10
2023-04-10T10:21:15.786Z,15.10
2023-04-10T10:23:44.224Z,15.20
2023-04-10T10:26:11.482Z,15.40
2023-04-10T10:28:40.521Z,15.50
2023-04-10T10:31:08.160Z,15.60
2023-04-10T10:33:38.555Z,15.60
2023-04-10T10:36:06.509Z,15.70
2023-04-10T10:38:34.412Z,15.80
2023-04-10T10:41:23.613Z,15.90
2023-04-10T10:44:22.141Z,16.00
2023-04-10T10:47:31.041Z,16.10
2023-04-10T10:50:02.884Z,16.30
2023-04-10T10:52:57.235Z,16.50
2023-04-10T10:55:24.642Z,16.60
2023-04-10T10:57:52.898Z,16.70
2023-04-10T11:00:21.567Z,16.70
2023-04-10T11:03:08.978Z,16.80
2023-04-10T11:06:03.047Z,17.10
2023-04-10T11:08:32.797Z,17.20
2023-04-10T11:11:07.159Z,17.20
2023-04-10T11:13:41.550Z,17.10
2023-04-10T11:16:13.229Z,17.00
2023-04-10T11:18:56.109Z,16.80
2023-04-10T11:21:30.339Z,16.90
2023-04-10T11:23:57.172Z,17.00
2023-04-10T11:26:41.599Z,17.10
2023-04-10T11:29:17.724Z,17.10
2023-04-10T11:31:58.809Z,17.20
2023-04-10T11:34:27.547Z,17.20
2023-04-10T11:36:54.807Z,17.30
2023-04-10T11:39:21.712Z,17.30
2023-04-10T11:41:50.610Z,17.30
2023-04-10T11:44:42.194Z,17.20
2023-04-10T11:47:12.963Z,17.20
2023-04-10T11:49:39.844Z,17.20
2023-04-10T11:52:07.141Z,17.20
2023-04-10T11:54:34.020Z,17.10
2023-04-10T11:57:04.187Z,17.00
2023-04-10T11:59:32.956Z,17.00
2023-04-10T12:02:12.812Z,17.10
2023-04-10T12:04:40.433Z,17.10
2023-04-10T12:07:07.690Z,17.00
2023-04-10T12:09:34.920Z,17.10
2023-04-10T12:12:06.762Z,17.10
2023-04-10T12:14:34.917Z,17.20
2023-04-10T12:17:03.573Z,17.30
2023-04-10T12:19:31.062Z,17.50
2023-04-10T12:21:59.323Z,17.70
2023-04-10T12:24:46.659Z,17.90
2023-04-10T12:27:25.508Z,18.20
2023-04-10T12:29:54.451Z,18.60
2023-04-10T12:32:21.513Z,18.90
2023-04-10T12:34:59.290Z,19.20
2023-04-10T12:37:46.530Z,19.50
2023-04-10T12:40:13.963Z,19.70
2023-04-10T12:42:42.134Z,19.90
2023-04-10T12:45:12.928Z,19.80
2023-04-10T12:47:48.826Z,19.90
2023-04-10T12:50:17.130Z,20.40
2023-04-10T12:52:46.323Z,21.00
2023-04-10T12:55:17.117Z,21.40
2023-04-10T12:57:44.860Z,21.40
2023-04-10T13:00:17.097Z,20.90
2023-04-10T13:02:44.811Z,20.60
2023-04-10T13:05:12.250Z,19.90
2023-04-10T13:07:39.625Z,19.30
2023-04-10T13:10:07.459Z,18.70
2023-04-10T13:12:36.230Z,18.20
2023-04-10T13:15:03.225Z,18.00
2023-04-10T13:17:30.329Z,17.80
2023-04-10T13:19:57.233Z,17.70
2023-04-10T13:22:24.075Z,17.60
2023-04-10T13:24:50.982Z,17.50
2023-04-10T13:27:17.950Z,17.50
2023-04-10T13:29:44.891Z,17.40
2023-04-10T13:32:11.683Z,17.30
2023-04-10T13:34:38.573Z,17.20
2023-04-10T13:37:05.632Z,17.20
2023-04-10T13:39:32.642Z,17.20
2023-04-10T13:41:59.776Z,17.20
2023-04-10T13:44:26.814Z,17.10
2023-04-10T13:46:54.206Z,17.10
2023-04-10T13:49:22.202Z,17.00
2023-04-10T13:51:49.638Z,16.90
2023-04-10T13:54:17.500Z,16.90
2023-04-10T13:56:46.371Z,16.90
2023-04-10T13:59:13.724Z,16.80
2023-04-10T14:01:40.676Z,16.80
2023-04-10T14:04:08.311Z,16.80
2023-04-10T14:06:38.001Z,16.90
2023-04-10T14:09:05.026Z,16.90
2023-04-10T14:11:31.872Z,16.90
2023-04-10T14:13:58.737Z,16.70
2023-04-10T14:16:25.718Z,16.60
2023-04-10T14:18:52.876Z,16.50
2023-04-10T14:21:20.799Z,16.40
2023-04-10T14:23:48.849Z,16.40
2023-04-10T14:26:15.805Z,16.20
2023-04-10T14:28:42.697Z,16.20
2023-04-10T14:31:09.814Z,16.30
2023-04-10T14:33:36.692Z,16.20
2023-04-10T14:36:03.752Z,16.20
2023-04-10T14:38:30.723Z,16.10
2023-04-10T14:40:57.607Z,16.10
2023-04-10T14:43:24.503Z,16.10
2023-04-10T14:45:51.331Z,16.10
2023-04-10T14:48:19.824Z,16.10
2023-04-10T14:50:48.282Z,16.00
2023-04-10T14:53:15.373Z,15.90
2023-04-10T14:55:42.353Z,15.90
2023-04-10T14:58:09.203Z,15.80
2023-04-10T15:00:36.134Z,15.80
2023-04-10T15:03:05.355Z,15.70
2023-04-10T15:05:32.363Z,15.70
2023-04-10T15:07:59.240Z,15.70
2023-04-10T15:10:26.273Z,15.50
2023-04-10T15:12:53.127Z,15.50
2023-04-10T15:15:20.065Z,15.50
2023-04-10T15:17:47.090Z,15.40
2023-04-10T15:20:14.239Z,15.40
2023-04-10T15:22:43.021Z,15.40
2023-04-10T15:25:12.208Z,15.40
2023-04-10T15:27:39.494Z,15.40
2023-04-10T15:30:07.214Z,15.30
2023-04-10T15:32:38.915Z,15.30
2023-04-10T15:35:20.572Z,15.30
2023-04-10T15:37:47.497Z,15.30
2023-04-10T15:40:14.459Z,15.20
2023-04-10T15:42:41.469Z,15.10
2023-04-10T15:45:08.532Z,15.10
2023-04-10T15:47:35.763Z,15.10
2023-04-10T15:50:02.752Z,15.20
2023-04-10T15:52:31.684Z,15.20
2023-04-10T15:54:58.626Z,15.20
2023-04-10T15:57:25.492Z,15.20
2023-04-10T15:59:53.805Z,15.30
2023-04-10T16:02:20.841Z,15.30
2023-04-10T16:04:47.945Z,15.30
2023-04-10T16:07:15.019Z,15.30
2023-04-10T16:09:41.863Z,15.40
2023-04-10T16:12:08.702Z,15.40
2023-04-10T16:14:35.631Z,15.40
2023-04-10T16:17:02.479Z,15.40
2023-04-10T16:19:32.363Z,15.40
2023-04-10T16:21:59.374Z,15.40
2023-04-10T16:24:26.683Z,15.30
2023-04-10T16:26:54.207Z,15.30
2023-04-10T16:29:21.723Z,15.20
2023-04-10T16:31:48.681Z,15.10
2023-04-10T16:34:15.741Z,15.00
2023-04-10T16:36:42.650Z,15.00
2023-04-10T16:39:09.539Z,14.90
2023-04-10T16:41:36.365Z,14.90
2023-04-10T16:44:03.208Z,14.80
2023-04-10T16:46:31.154Z,14.80
2023-04-10T16:48:58.175Z,14.70
2023-04-10T16:51:25.062Z,14.60
2023-04-10T16:53:51.926Z,14.40
2023-04-10T16:56:18.827Z,14.30
2023-04-10T16:58:47.083Z,14.10
2023-04-10T17:01:21.974Z,13.80
2023-04-10T17:03:49.219Z,13.70
2023-04-10T17:06:16.540Z,13.60
2023-04-10T17:08:44.061Z,13.40
2023-04-10T17:11:12.637Z,13.10
2023-04-10T17:13:43.022Z,12.80
2023-04-10T17:16:10.358Z,12.50
2023-04-10T17:18:37.433Z,12.30
2023-04-10T17:21:04.576Z,12.10
2023-04-10T17:23:31.407Z,11.90
2023-04-10T17:25:58.321Z,11.90
2023-04-10T17:28:25.429Z,11.80
2023-04-10T17:30:52.363Z,11.70
2023-04-10T17:33:19.563Z,11.60
2023-04-10T17:35:46.434Z,11.60
2023-04-10T17:38:13.484Z,11.50
2023-04-10T17:40:41.213Z,11.50
2023-04-10T17:43:08.345Z,11.40
2023-04-10T17:45:39.748Z,11.40
2023-04-10T17:48:07.179Z,11.50
2023-04-10T17:50:34.331Z,11.40
2023-04-10T17:53:01.251Z,11.40
2023-04-10T17:55:28.467Z,11.30
2023-04-10T17:57:57.588Z,11.30
2023-04-10T18:00:24.820Z,11.30
2023-04-10T18:02:57.969Z,11.20
2023-04-10T18:05:25.322Z,11.30
2023-04-10T18:07:52.275Z,11.30
2023-04-10T18:10:19.417Z,11.30
2023-04-10T18:12:46.349Z,11.30
2023-04-10T18:15:16.169Z,11.30
2023-04-10T18:17:43.299Z,11.30
2023-04-10T18:20:10.823Z,11.20
2023-04-10T18:22:37.784Z,11.20
2023-04-10T18:25:05.389Z,11.20
2023-04-10T18:27:34.682Z,11.20
2023-04-10T18:30:02.339Z,11.10
2023-04-10T18:32:29.273Z,11.00
2023-04-10T18:34:56.216Z,11.10
2023-04-10T18:37:23.099Z,10.90
2023-04-10T18:39:49.948Z,10.90
2023-04-10T18:42:16.800Z,10.90
2023-04-10T18:44:43.733Z,10.80
2023-04-10T18:47:11.298Z,10.70
2023-04-10T18:49:38.289Z,10.80
2023-04-10T18:52:05.413Z,10.70
2023-04-10T18:54:33.852Z,10.60
2023-04-10T18:57:01.095Z,10.60
2023-04-10T18:59:28.532Z,10.70
2023-04-10T19:01:56.202Z,10.60
2023-04-10T19:04:23.378Z,10.60
2023-04-10T19:06:50.569Z,10.60
2023-04-10T19:09:17.482Z,10.60
2023-04-10T19:11:44.663Z,10.50
2023-04-10T19:14:11.479Z,10.50
2023-04-10T19:16:38.412Z,10.50
2023-04-10T19:19:05.709Z,10.40
2023-04-10T19:21:32.710Z,10.50
2023-04-10T19:23:59.607Z,10.50
2023-04-10T19:26:26.612Z,10.40
2023-04-10T19:28:54.062Z,10.50
2023-04-10T19:31:21.274Z,10.40
2023-04-10T19:33:48.207Z,10.40
2023-04-10T19:36:16.433Z,10.40
2023-04-10T19:38:48.528Z,10.40
2023-04-10T19:41:15.815Z,10.40
2023-04-10T19:43:43.073Z,10.40
2023-04-10T19:46:17.915Z,10.40
2023-04-10T19:48:45.536Z,10.50
2023-04-10T19:51:13.218Z,10.40
2023-04-10T19:53:41.224Z,10.50
2023-04-10T19:56:08.388Z,10.50
2023-04-10T19:58:39.826Z,10.50
2023-04-10T20:01:12.392Z,10.50
2023-04-10T20:03:39.693Z,10.50
2023-04-10T20:06:08.044Z,10.50
2023-04-10T20:08:35.807Z,10.50
2023-04-10T20:11:06.121Z,10.50
2023-04-10T20:13:36.457Z,10.50
2023-04-10T20:16:03.383Z,10.40
2023-04-10T20:18:31.712Z,10.30
2023-04-10T20:20:58.621Z,10.30
2023-04-10T20:23:25.609Z,10.40
2023-04-10T20:25:52.600Z,10.40
2023-04-10T20:28:19.516Z,10.40
2023-04-10T20:30:46.373Z,10.30
2023-04-10T20:33:13.220Z,10.30
2023-04-10T20:35:40.197Z,10.30
2023-04-10T20:38:07.254Z,10.30
2023-04-10T20:40:34.814Z,10.30
2023-04-10T20:43:01.722Z,10.30
2023-04-10T20:45:28.557Z,10.30
2023-04-10T20:47:57.795Z,10.20
2023-04-10T20:50:24.732Z,10.30
2023-04-10T20:52:51.667Z,10.30
2023-04-10T20:55:18.664Z,10.20
2023-04-10T20:57:45.574Z,10.30
2023-04-10T21:00:13.741Z,10.30
2023-04-10T21:02:40.855Z,10.30
2023-04-10T21:05:08.303Z,10.30
2023-04-10T21:07:35.250Z,10.30
2023-04-10T21:10:02.128Z,10.20
2023-04-10T21:12:29.112Z,10.20
2023-04-10T21:14:55.987Z,10.30
2023-04-10T21:17:23.486Z,10.30
2023-04-10T21:19:50.487Z,10.20
2023-04-10T21:22:17.493Z,10.20
2023-04-10T21:24:44.346Z,10.20
2023-04-10T21:27:11.549Z,10.30
2023-04-10T21:29:38.341Z,10.20
2023-04-10T21:32:05.315Z,10.30
2023-04-10T21:34:32.285Z,10.30
2023-04-10T21:36:59.315Z,10.20
2023-04-10T21:39:26.335Z,10.20
2023-04-10T21:41:53.171Z,10.20
2023-04-10T21:44:20.026Z,10.20
2023-04-10T21:46:47.159Z,10.10
2023-04-10T21:49:14.006Z,10.10
2023-04-10T21:51:41.082Z,10.20
2023-04-10T21:54:08.120Z,10.30
2023-04-10T21:56:36.800Z,10.30
2023-04-10T21:59:03.684Z,10.30
2023-04-10T22:01:30.694Z,10.30
2023-04-10T22:03:57.715Z,10.30
2023-04-10T22:06:24.788Z,10.40
2023-04-10T22:08:51.587Z,10.30
2023-04-10T22:11:18.520Z,10.40
2023-04-10T22:13:45.430Z,10.40
2023-04-10T22:16:12.233Z,10.30
2023-04-10T22:18:39.142Z,10.30
2023-04-10T22:21:06.295Z,10.30
2023-04-10T22:23:33.388Z,10.30
2023-04-10T22:26:01.058Z,10.20
2023-04-10T22:28:28.877Z,10.20
2023-04-10T22:30:55.836Z,10.30
2023-04-10T22:33:22.774Z,10.30
2023-04-10T22:35:49.647Z,10.30
2023-04-10T22:38:16.479Z,10.20
2023-04-10T22:40:43.302Z,10.20
2023-04-10T22:43:10.944Z,10.10
2023-04-10T22:45:39.648Z,10.10
2023-04-10T22:48:06.553Z,10.10
2023-04-10T22:50:33.552Z,10.10
2023-04-10T22:53:00.397Z,10.20
2023-04-10T22:55:27.317Z,10.20
2023-04-10T22:57:54.123Z,10.20
2023-04-10T23:00:21.061Z,10.20
2023-04-10T23:02:48.006Z,10.20
2023-04-10T23:05:15.032Z,10.20
2023-04-10T23:07:41.921Z,10.20
2023-04-10T23:10:09.181Z,10.20
2023-04-10T23:12:35.989Z,10.30
2023-04-10T23:15:03.080Z,10.30
2023-04-10T23:17:29.944Z,10.30
2023-04-10T23:19:56.933Z,10.30
2023-04-10T23:22:23.865Z,10.40
2023-04-10T23:24:56.094Z,10.40
2023-04-10T23:27:23.359Z,10.30
2023-04-10T23:29:50.457Z,10.30
2023-04-10T23:32:17.289Z,10.30
2023-04-10T23:34:44.254Z,9.20
2023-04-10T23:37:11.119Z,7.30
2023-04-10T23:39:37.958Z,6.40
2023-04-10T23:42:04.925Z,5.70
2023-04-10T23:44:31.801Z,5.40
2023-04-10T23:46:58.730Z,5.30
2023-04-10T23:49:25.683Z,5.20
2023-04-10T23:51:52.610Z,5.20
2023-04-10T23:54:19.466Z,5.20
2023-04-10T23:56:46.325Z,5.20
2023-04-10T23:59:16.872Z,5.20
